sensor_id;sensor_type;location;lat;lon;timestamp;temperature;humidity
16867;DHT22;8550;52.596;13.320;2022-09-04T00:03:18;17.00;88.30
16867;DHT22;8550;52.596;13.320;2022-09-04T00:13:57;16.70;90.10
16867;DHT22;8550;52.596;13.320;2022-09-04T00:19:04;16.70;90.20
16867;DHT22;8550;52.596;13.320;2022-09-04T00:24:12;16.60;90.30
16867;DHT22;8550;52.596;13.320;2022-09-04T00:29:21;16.50;91.00
16867;DHT22;8550;52.596;13.320;2022-09-04T00:34:39;16.30;91.60
16867;DHT22;8550;52.596;13.320;2022-09-04T00:39:47;16.20;91.60
16867;DHT22;8550;52.596;13.320;2022-09-04T00:44:58;16.10;92.00
16867;DHT22;8550;52.596;13.320;2022-09-04T00:50:31;16.10;92.30
16867;DHT22;8550;52.596;13.320;2022-09-04T00:55:49;16.00;92.50
16867;DHT22;8550;52.596;13.320;2022-09-04T01:00:58;15.90;93.00
16867;DHT22;8550;52.596;13.320;2022-09-04T01:06:15;15.90;93.60
16867;DHT22;8550;52.596;13.320;2022-09-04T01:11:26;15.90;93.40
16867;DHT22;8550;52.596;13.320;2022-09-04T01:16:40;15.80;93.40
16867;DHT22;8550;52.596;13.320;2022-09-04T01:22:07;15.80;94.00
16867;DHT22;8550;52.596;13.320;2022-09-04T01:27:15;15.90;93.90
16867;DHT22;8550;52.596;13.320;2022-09-04T01:32:30;15.90;93.60
16867;DHT22;8550;52.596;13.320;2022-09-04T01:37:47;16.00;93.70
16867;DHT22;8550;52.596;13.320;2022-09-04T01:42:54;15.90;93.90
16867;DHT22;8550;52.596;13.320;2022-09-04T01:48:00;15.90;93.70
16867;DHT22;8550;52.596;13.320;2022-09-04T01:53:11;15.80;94.20
16867;DHT22;8550;52.596;13.320;2022-09-04T01:58:23;15.70;94.60
16867;DHT22;8550;52.596;13.320;2022-09-04T02:03:34;15.70;94.50
16867;DHT22;8550;52.596;13.320;2022-09-04T02:08:53;15.60;95.00
16867;DHT22;8550;52.596;13.320;2022-09-04T02:14:08;15.40;95.00
16867;DHT22;8550;52.596;13.320;2022-09-04T02:19:20;15.40;94.80
16867;DHT22;8550;52.596;13.320;2022-09-04T02:24:29;15.30;95.20
16867;DHT22;8550;52.596;13.320;2022-09-04T02:29:39;15.30;95.40
16867;DHT22;8550;52.596;13.320;2022-09-04T02:34:50;15.20;95.90
16867;DHT22;8550;52.596;13.320;2022-09-04T02:40:02;15.20;95.60
16867;DHT22;8550;52.596;13.320;2022-09-04T02:45:14;15.10;96.60
16867;DHT22;8550;52.596;13.320;2022-09-04T02:50:28;15.00;96.70
16867;DHT22;8550;52.596;13.320;2022-09-04T02:55:54;15.00;96.70
16867;DHT22;8550;52.596;13.320;2022-09-04T03:01:06;15.00;97.10
16867;DHT22;8550;52.596;13.320;2022-09-04T03:06:13;15.00;97.20
16867;DHT22;8550;52.596;13.320;2022-09-04T03:11:19;14.90;97.70
16867;DHT22;8550;52.596;13.320;2022-09-04T03:16:30;14.90;97.40
16867;DHT22;8550;52.596;13.320;2022-09-04T03:21:38;14.80;97.80
16867;DHT22;8550;52.596;13.320;2022-09-04T03:26:43;14.80;98.10
16867;DHT22;8550;52.596;13.320;2022-09-04T03:31:51;14.70;98.20
16867;DHT22;8550;52.596;13.320;2022-09-04T03:37:04;14.70;99.10
16867;DHT22;8550;52.596;13.320;2022-09-04T03:42:14;14.70;99.90
16867;DHT22;8550;52.596;13.320;2022-09-04T03:47:30;14.50;99.90
16867;DHT22;8550;52.596;13.320;2022-09-04T03:52:42;14.40;99.90
16867;DHT22;8550;52.596;13.320;2022-09-04T03:57:56;14.30;99.90
16867;DHT22;8550;52.596;13.320;2022-09-04T04:03:16;14.20;99.90
16867;DHT22;8550;52.596;13.320;2022-09-04T04:08:45;14.10;99.90
16867;DHT22;8550;52.596;13.320;2022-09-04T04:14:13;14.10;99.90
16867;DHT22;8550;52.596;13.320;2022-09-04T04:19:39;14.00;99.90
16867;DHT22;8550;52.596;13.320;2022-09-04T04:24:58;14.00;99.90
16867;DHT22;8550;52.596;13.320;2022-09-04T04:30:07;13.90;99.90
16867;DHT22;8550;52.596;13.320;2022-09-04T04:35:22;13.80;99.90
16867;DHT22;8550;52.596;13.320;2022-09-04T04:40:37;13.80;99.90
16867;DHT22;8550;52.596;13.320;2022-09-04T04:45:48;13.70;99.90
16867;DHT22;8550;52.596;13.320;2022-09-04T04:51:02;13.80;99.90
16867;DHT22;8550;52.596;13.320;2022-09-04T04:56:10;13.80;99.90
16867;DHT22;8550;52.596;13.320;2022-09-04T05:01:26;13.90;99.90
16867;DHT22;8550;52.596;13.320;2022-09-04T05:06:35;13.90;99.90
16867;DHT22;8550;52.596;13.320;2022-09-04T05:11:49;13.90;99.90
16867;DHT22;8550;52.596;13.320;2022-09-04T05:16:56;14.00;99.90
16867;DHT22;8550;52.596;13.320;2022-09-04T05:22:07;14.20;99.90
16867;DHT22;8550;52.596;13.320;2022-09-04T05:27:28;14.30;99.90
16867;DHT22;8550;52.596;13.320;2022-09-04T05:32:34;14.40;99.90
16867;DHT22;8550;52.596;13.320;2022-09-04T05:37:47;14.60;99.90
16867;DHT22;8550;52.596;13.320;2022-09-04T05:43:01;14.70;99.90
16867;DHT22;8550;52.596;13.320;2022-09-04T05:48:11;14.80;99.90
16867;DHT22;8550;52.596;13.320;2022-09-04T05:53:44;14.90;99.90
16867;DHT22;8550;52.596;13.320;2022-09-04T05:59:04;15.10;99.90
16867;DHT22;8550;52.596;13.320;2022-09-04T06:04:30;15.30;99.90
16867;DHT22;8550;52.596;13.320;2022-09-04T06:09:57;15.20;99.90
16867;DHT22;8550;52.596;13.320;2022-09-04T06:15:18;15.60;99.90
16867;DHT22;8550;52.596;13.320;2022-09-04T06:20:32;15.90;99.90
16867;DHT22;8550;52.596;13.320;2022-09-04T06:25:51;16.00;99.30
16867;DHT22;8550;52.596;13.320;2022-09-04T06:31:24;16.00;99.30
16867;DHT22;8550;52.596;13.320;2022-09-04T06:37:00;16.20;99.60
16867;DHT22;8550;52.596;13.320;2022-09-04T06:42:24;16.40;98.80
16867;DHT22;8550;52.596;13.320;2022-09-04T06:47:39;16.70;99.00
16867;DHT22;8550;52.596;13.320;2022-09-04T06:52:54;16.70;98.80
16867;DHT22;8550;52.596;13.320;2022-09-04T06:58:20;16.60;98.50
16867;DHT22;8550;52.596;13.320;2022-09-04T07:03:37;16.60;99.30
16867;DHT22;8550;52.596;13.320;2022-09-04T07:08:56;16.70;99.30
16867;DHT22;8550;52.596;13.320;2022-09-04T07:14:26;16.90;98.70
16867;DHT22;8550;52.596;13.320;2022-09-04T07:19:57;17.30;98.90
16867;DHT22;8550;52.596;13.320;2022-09-04T07:25:09;17.40;98.40
16867;DHT22;8550;52.596;13.320;2022-09-04T07:30:14;17.40;98.60
16867;DHT22;8550;52.596;13.320;2022-09-04T07:35:23;17.70;98.70
16867;DHT22;8550;52.596;13.320;2022-09-04T07:40:33;17.90;98.20
16867;DHT22;8550;52.596;13.320;2022-09-04T07:45:39;18.10;98.20
16867;DHT22;8550;52.596;13.320;2022-09-04T07:50:56;18.20;98.30
16867;DHT22;8550;52.596;13.320;2022-09-04T07:56:14;18.50;98.30
16867;DHT22;8550;52.596;13.320;2022-09-04T08:01:43;18.80;97.70
16867;DHT22;8550;52.596;13.320;2022-09-04T08:06:52;19.00;97.60
16867;DHT22;8550;52.596;13.320;2022-09-04T08:17:53;19.10;97.10
16867;DHT22;8550;52.596;13.320;2022-09-04T08:23:05;19.50;97.20
16867;DHT22;8550;52.596;13.320;2022-09-04T08:28:29;19.70;96.90
16867;DHT22;8550;52.596;13.320;2022-09-04T08:33:48;19.80;96.30
16867;DHT22;8550;52.596;13.320;2022-09-04T08:39:04;20.00;96.70
16867;DHT22;8550;52.596;13.320;2022-09-04T08:55:30;20.70;95.30
16867;DHT22;8550;52.596;13.320;2022-09-04T09:00:40;20.60;94.80
16867;DHT22;8550;52.596;13.320;2022-09-04T09:06:16;20.80;95.30
16867;DHT22;8550;52.596;13.320;2022-09-04T09:12:01;21.00;94.60
16867;DHT22;8550;52.596;13.320;2022-09-04T09:17:11;21.20;94.80
16867;DHT22;8550;52.596;13.320;2022-09-04T09:22:35;21.40;94.40
16867;DHT22;8550;52.596;13.320;2022-09-04T09:28:16;21.70;93.90
16867;DHT22;8550;52.596;13.320;2022-09-04T09:33:55;22.00;93.40
16867;DHT22;8550;52.596;13.320;2022-09-04T09:39:31;22.10;92.50
16867;DHT22;8550;52.596;13.320;2022-09-04T09:50:48;22.30;91.40
16867;DHT22;8550;52.596;13.320;2022-09-04T09:56:24;22.50;91.40
16867;DHT22;8550;52.596;13.320;2022-09-04T10:13:02;23.40;88.60
16867;DHT22;8550;52.596;13.320;2022-09-04T10:24:15;23.40;85.60
16867;DHT22;8550;52.596;13.320;2022-09-04T10:29:43;23.60;85.00
16867;DHT22;8550;52.596;13.320;2022-09-04T10:35:02;23.80;83.60
16867;DHT22;8550;52.596;13.320;2022-09-04T10:40:22;24.00;85.40
16867;DHT22;8550;52.596;13.320;2022-09-04T10:45:45;24.10;83.40
16867;DHT22;8550;52.596;13.320;2022-09-04T10:56:40;25.10;79.40
16867;DHT22;8550;52.596;13.320;2022-09-04T11:02:08;26.60;76.00
16867;DHT22;8550;52.596;13.320;2022-09-04T11:07:34;27.20;72.90
16867;DHT22;8550;52.596;13.320;2022-09-04T11:18:38;28.50;65.70
16867;DHT22;8550;52.596;13.320;2022-09-04T11:29:43;30.10;59.80
16867;DHT22;8550;52.596;13.320;2022-09-04T11:35:19;30.20;57.90
16867;DHT22;8550;52.596;13.320;2022-09-04T11:52:14;31.40;53.50
16867;DHT22;8550;52.596;13.320;2022-09-04T11:57:25;31.70;51.90
16867;DHT22;8550;52.596;13.320;2022-09-04T12:02:54;32.20;50.50
16867;DHT22;8550;52.596;13.320;2022-09-04T12:08:14;31.60;51.10
16867;DHT22;8550;52.596;13.320;2022-09-04T12:13:43;32.80;49.10
16867;DHT22;8550;52.596;13.320;2022-09-04T12:25:06;31.70;48.90
16867;DHT22;8550;52.596;13.320;2022-09-04T12:30:18;32.20;49.20
16867;DHT22;8550;52.596;13.320;2022-09-04T12:41:02;29.80;52.60
16867;DHT22;8550;52.596;13.320;2022-09-04T12:46:20;29.10;54.70
16867;DHT22;8550;52.596;13.320;2022-09-04T12:51:27;30.00;52.30
16867;DHT22;8550;52.596;13.320;2022-09-04T12:56:44;32.80;48.10
16867;DHT22;8550;52.596;13.320;2022-09-04T13:01:54;34.00;46.30
16867;DHT22;8550;52.596;13.320;2022-09-04T13:07:12;34.80;44.30
16867;DHT22;8550;52.596;13.320;2022-09-04T13:12:26;33.40;45.40
16867;DHT22;8550;52.596;13.320;2022-09-04T13:17:39;33.80;46.30
16867;DHT22;8550;52.596;13.320;2022-09-04T13:22:55;33.60;43.70
16867;DHT22;8550;52.596;13.320;2022-09-04T13:28:12;33.00;44.90
16867;DHT22;8550;52.596;13.320;2022-09-04T13:33:22;34.80;44.00
16867;DHT22;8550;52.596;13.320;2022-09-04T13:39:11;35.40;42.70
16867;DHT22;8550;52.596;13.320;2022-09-04T13:44:33;34.00;42.60
16867;DHT22;8550;52.596;13.320;2022-09-04T13:49:43;31.30;46.00
16867;DHT22;8550;52.596;13.320;2022-09-04T13:54:52;30.10;47.70
16867;DHT22;8550;52.596;13.320;2022-09-04T14:00:00;30.20;46.40
16867;DHT22;8550;52.596;13.320;2022-09-04T14:05:09;32.80;44.30
16867;DHT22;8550;52.596;13.320;2022-09-04T14:10:15;32.30;43.50
16867;DHT22;8550;52.596;13.320;2022-09-04T14:21:05;29.60;47.90
16867;DHT22;8550;52.596;13.320;2022-09-04T14:26:18;28.50;49.00
16867;DHT22;8550;52.596;13.320;2022-09-04T14:31:30;30.10;49.30
16867;DHT22;8550;52.596;13.320;2022-09-04T14:36:36;33.20;44.40
16867;DHT22;8550;52.596;13.320;2022-09-04T14:42:03;33.90;41.30
16867;DHT22;8550;52.596;13.320;2022-09-04T14:47:24;32.60;42.40
16867;DHT22;8550;52.596;13.320;2022-09-04T14:52:31;30.80;45.90
16867;DHT22;8550;52.596;13.320;2022-09-04T14:57:41;29.80;46.80
16867;DHT22;8550;52.596;13.320;2022-09-04T15:02:50;28.60;48.40
16867;DHT22;8550;52.596;13.320;2022-09-04T15:07:58;27.80;49.10
16867;DHT22;8550;52.596;13.320;2022-09-04T15:18:40;27.20;51.30
16867;DHT22;8550;52.596;13.320;2022-09-04T15:23:48;26.30;51.30
16867;DHT22;8550;52.596;13.320;2022-09-04T15:28:55;25.90;53.20
16867;DHT22;8550;52.596;13.320;2022-09-04T15:34:02;25.80;54.50
16867;DHT22;8550;52.596;13.320;2022-09-04T15:39:07;25.50;56.20
16867;DHT22;8550;52.596;13.320;2022-09-04T15:44:16;25.20;57.90
16867;DHT22;8550;52.596;13.320;2022-09-04T15:49:28;25.00;56.90
16867;DHT22;8550;52.596;13.320;2022-09-04T15:54:49;24.80;57.40
16867;DHT22;8550;52.596;13.320;2022-09-04T15:59:56;24.70;56.40
16867;DHT22;8550;52.596;13.320;2022-09-04T16:05:11;24.60;58.90
16867;DHT22;8550;52.596;13.320;2022-09-04T16:10:17;24.00;58.80
16867;DHT22;8550;52.596;13.320;2022-09-04T16:15:28;24.00;59.60
16867;DHT22;8550;52.596;13.320;2022-09-04T16:20:38;23.90;60.20
16867;DHT22;8550;52.596;13.320;2022-09-04T16:25:50;24.00;59.90
16867;DHT22;8550;52.596;13.320;2022-09-04T16:30:56;24.00;60.80
16867;DHT22;8550;52.596;13.320;2022-09-04T16:36:03;24.00;60.10
16867;DHT22;8550;52.596;13.320;2022-09-04T16:41:10;23.90;59.70
16867;DHT22;8550;52.596;13.320;2022-09-04T16:46:22;23.60;59.10
16867;DHT22;8550;52.596;13.320;2022-09-04T16:51:31;23.30;60.80
16867;DHT22;8550;52.596;13.320;2022-09-04T16:56:37;23.30;60.60
16867;DHT22;8550;52.596;13.320;2022-09-04T17:01:42;23.00;60.80
16867;DHT22;8550;52.596;13.320;2022-09-04T17:06:54;22.90;61.80
16867;DHT22;8550;52.596;13.320;2022-09-04T17:12:11;22.80;63.50
16867;DHT22;8550;52.596;13.320;2022-09-04T17:17:17;22.60;62.80
16867;DHT22;8550;52.596;13.320;2022-09-04T17:22:26;22.50;63.20
16867;DHT22;8550;52.596;13.320;2022-09-04T17:27:38;22.40;64.00
16867;DHT22;8550;52.596;13.320;2022-09-04T17:32:48;22.30;64.20
16867;DHT22;8550;52.596;13.320;2022-09-04T17:38:03;22.10;64.60
16867;DHT22;8550;52.596;13.320;2022-09-04T17:43:18;21.90;65.50
16867;DHT22;8550;52.596;13.320;2022-09-04T17:48:26;21.60;66.10
16867;DHT22;8550;52.596;13.320;2022-09-04T17:53:31;21.50;67.30
16867;DHT22;8550;52.596;13.320;2022-09-04T17:58:39;21.30;67.70
16867;DHT22;8550;52.596;13.320;2022-09-04T18:03:48;21.20;69.60
16867;DHT22;8550;52.596;13.320;2022-09-04T18:08:59;20.90;69.10
16867;DHT22;8550;52.596;13.320;2022-09-04T18:14:06;20.80;69.80
16867;DHT22;8550;52.596;13.320;2022-09-04T18:19:14;20.80;70.00
16867;DHT22;8550;52.596;13.320;2022-09-04T18:24:21;20.60;70.20
16867;DHT22;8550;52.596;13.320;2022-09-04T18:29:38;20.60;71.60
16867;DHT22;8550;52.596;13.320;2022-09-04T18:34:46;20.50;72.30
16867;DHT22;8550;52.596;13.320;2022-09-04T18:40:04;20.30;72.70
16867;DHT22;8550;52.596;13.320;2022-09-04T18:45:10;20.30;73.00
16867;DHT22;8550;52.596;13.320;2022-09-04T18:50:22;20.10;73.80
16867;DHT22;8550;52.596;13.320;2022-09-04T18:55:30;20.10;73.90
16867;DHT22;8550;52.596;13.320;2022-09-04T19:00:38;20.00;74.70
16867;DHT22;8550;52.596;13.320;2022-09-04T19:05:44;19.90;76.20
16867;DHT22;8550;52.596;13.320;2022-09-04T19:10:51;19.80;77.40
16867;DHT22;8550;52.596;13.320;2022-09-04T19:15:58;19.70;78.10
16867;DHT22;8550;52.596;13.320;2022-09-04T19:26:43;19.50;79.80
16867;DHT22;8550;52.596;13.320;2022-09-04T19:31:52;19.40;81.60
16867;DHT22;8550;52.596;13.320;2022-09-04T19:37:01;19.30;81.10
16867;DHT22;8550;52.596;13.320;2022-09-04T19:42:14;19.10;81.50
16867;DHT22;8550;52.596;13.320;2022-09-04T19:47:29;19.10;81.90
16867;DHT22;8550;52.596;13.320;2022-09-04T19:52:41;19.10;82.20
16867;DHT22;8550;52.596;13.320;2022-09-04T19:57:46;19.10;83.30
16867;DHT22;8550;52.596;13.320;2022-09-04T20:02:50;19.00;83.10
16867;DHT22;8550;52.596;13.320;2022-09-04T20:07:56;19.00;84.40
16867;DHT22;8550;52.596;13.320;2022-09-04T20:13:11;18.90;84.00
16867;DHT22;8550;52.596;13.320;2022-09-04T20:18:19;18.70;85.20
16867;DHT22;8550;52.596;13.320;2022-09-04T20:23:26;18.60;87.20
16867;DHT22;8550;52.596;13.320;2022-09-04T20:28:42;18.60;87.40
16867;DHT22;8550;52.596;13.320;2022-09-04T20:33:46;18.50;87.60
16867;DHT22;8550;52.596;13.320;2022-09-04T20:38:53;18.30;88.40
16867;DHT22;8550;52.596;13.320;2022-09-04T20:44:05;18.30;89.30
16867;DHT22;8550;52.596;13.320;2022-09-04T20:49:11;18.20;89.80
16867;DHT22;8550;52.596;13.320;2022-09-04T20:54:45;18.20;90.40
16867;DHT22;8550;52.596;13.320;2022-09-04T20:59:58;18.10;90.90
16867;DHT22;8550;52.596;13.320;2022-09-04T21:10:47;18.00;91.50
16867;DHT22;8550;52.596;13.320;2022-09-04T21:16:00;18.00;91.20
16867;DHT22;8550;52.596;13.320;2022-09-04T21:21:23;18.00;91.20
16867;DHT22;8550;52.596;13.320;2022-09-04T21:26:37;17.90;91.50
16867;DHT22;8550;52.596;13.320;2022-09-04T21:32:05;17.80;91.90
16867;DHT22;8550;52.596;13.320;2022-09-04T21:37:14;17.80;92.00
16867;DHT22;8550;52.596;13.320;2022-09-04T21:42:33;17.80;92.00
16867;DHT22;8550;52.596;13.320;2022-09-04T21:47:54;17.70;92.20
16867;DHT22;8550;52.596;13.320;2022-09-04T21:53:15;17.70;92.10
16867;DHT22;8550;52.596;13.320;2022-09-04T21:58:34;17.60;92.70
16867;DHT22;8550;52.596;13.320;2022-09-04T22:03:46;17.50;92.70
16867;DHT22;8550;52.596;13.320;2022-09-04T22:08:57;17.50;93.00
16867;DHT22;8550;52.596;13.320;2022-09-04T22:14:08;17.50;93.10
16867;DHT22;8550;52.596;13.320;2022-09-04T22:25:04;17.40;93.60
16867;DHT22;8550;52.596;13.320;2022-09-04T22:30:07;17.40;93.50
16867;DHT22;8550;52.596;13.320;2022-09-04T22:35:35;17.30;93.80
16867;DHT22;8550;52.596;13.320;2022-09-04T22:40:56;17.20;94.20
16867;DHT22;8550;52.596;13.320;2022-09-04T22:52:07;17.10;94.50
16867;DHT22;8550;52.596;13.320;2022-09-04T22:57:21;17.10;94.70
16867;DHT22;8550;52.596;13.320;2022-09-04T23:02:31;17.10;95.10
16867;DHT22;8550;52.596;13.320;2022-09-04T23:07:54;17.00;95.10
16867;DHT22;8550;52.596;13.320;2022-09-04T23:18:40;17.00;95.80
16867;DHT22;8550;52.596;13.320;2022-09-04T23:24:12;16.90;95.40
16867;DHT22;8550;52.596;13.320;2022-09-04T23:29:50;17.00;95.90
16867;DHT22;8550;52.596;13.320;2022-09-04T23:35:13;16.90;95.70
16867;DHT22;8550;52.596;13.320;2022-09-04T23:40:34;16.90;95.70
16867;DHT22;8550;52.596;13.320;2022-09-04T23:45:56;16.80;96.00
16867;DHT22;8550;52.596;13.320;2022-09-04T23:51:18;16.80;96.50
16867;DHT22;8550;52.596;13.320;2022-09-04T23:56:27;16.80;96.10
